sensor_id;sensor_type;location;lat;lon;timestamp;P1;durP1;ratioP1;P2;durP2;ratioP2
55224;SDS011;41091;49.400;8.684;2023-11-22T00:00:41;0.80;;;0.80;;
55224;SDS011;41091;49.400;8.684;2023-11-22T00:03:07;1.27;;;1.17;;
55224;SDS011;41091;49.400;8.684;2023-11-22T00:05:32;1.10;;;1.10;;
55224;SDS011;41091;49.400;8.684;2023-11-22T00:08:01;1.80;;;1.00;;
55224;SDS011;41091;49.400;8.684;2023-11-22T00:10:26;1.95;;;1.08;;
55224;SDS011;41091;49.400;8.684;2023-11-22T00:12:52;1.35;;;1.35;;
55224;SDS011;41091;49.400;8.684;2023-11-22T00:15:20;1.00;;;1.00;;
55224;SDS011;41091;49.400;8.684;2023-11-22T00:17:46;1.42;;;1.20;;
55224;SDS011;41091;49.400;8.684;2023-11-22T00:20:13;1.40;;;1.30;;
55224;SDS011;41091;49.400;8.684;2023-11-22T00:22:39;1.23;;;1.23;;
55224;SDS011;41091;49.400;8.684;2023-11-22T00:25:07;3.88;;;1.58;;
55224;SDS011;41091;49.400;8.684;2023-11-22T00:27:33;1.00;;;1.00;;
55224;SDS011;41091;49.400;8.684;2023-11-22T00:29:59;1.23;;;1.10;;
55224;SDS011;41091;49.400;8.684;2023-11-22T00:32:24;1.30;;;1.27;;
55224;SDS011;41091;49.400;8.684;2023-11-22T00:34:50;1.30;;;1.20;;
55224;SDS011;41091;49.400;8.684;2023-11-22T00:37:16;2.58;;;1.27;;
55224;SDS011;41091;49.400;8.684;2023-11-22T00:39:41;1.25;;;1.25;;
55224;SDS011;41091;49.400;8.684;2023-11-22T00:42:12;1.00;;;1.00;;
55224;SDS011;41091;49.400;8.684;2023-11-22T00:44:37;2.88;;;1.23;;
55224;SDS011;41091;49.400;8.684;2023-11-22T00:47:05;6.63;;;1.52;;
55224;SDS011;41091;49.400;8.684;2023-11-22T00:49:31;1.25;;;1.25;;
55224;SDS011;41091;49.400;8.684;2023-11-22T00:51:57;1.20;;;1.20;;
55224;SDS011;41091;49.400;8.684;2023-11-22T00:54:23;1.40;;;1.40;;
55224;SDS011;41091;49.400;8.684;2023-11-22T00:56:51;2.13;;;1.15;;
55224;SDS011;41091;49.400;8.684;2023-11-22T00:59:16;1.10;;;1.10;;
55224;SDS011;41091;49.400;8.684;2023-11-22T01:01:41;1.50;;;1.10;;
55224;SDS011;41091;49.400;8.684;2023-11-22T01:04:07;2.05;;;1.30;;
55224;SDS011;41091;49.400;8.684;2023-11-22T01:06:35;1.35;;;1.10;;
55224;SDS011;41091;49.400;8.684;2023-11-22T01:09:03;1.58;;;1.48;;
55224;SDS011;41091;49.400;8.684;2023-11-22T01:11:28;1.70;;;1.50;;
55224;SDS011;41091;49.400;8.684;2023-11-22T01:13:54;1.48;;;1.40;;
55224;SDS011;41091;49.400;8.684;2023-11-22T01:16:21;1.15;;;1.05;;
55224;SDS011;41091;49.400;8.684;2023-11-22T01:18:49;2.83;;;1.42;;
55224;SDS011;41091;49.400;8.684;2023-11-22T01:21:15;2.45;;;1.50;;
55224;SDS011;41091;49.400;8.684;2023-11-22T01:23:40;1.10;;;1.10;;
55224;SDS011;41091;49.400;8.684;2023-11-22T01:26:06;3.42;;;1.42;;
55224;SDS011;41091;49.400;8.684;2023-11-22T01:28:34;2.92;;;1.80;;
55224;SDS011;41091;49.400;8.684;2023-11-22T01:31:00;1.27;;;1.17;;
55224;SDS011;41091;49.400;8.684;2023-11-22T01:33:28;1.55;;;1.45;;
55224;SDS011;41091;49.400;8.684;2023-11-22T01:35:54;1.25;;;1.25;;
55224;SDS011;41091;49.400;8.684;2023-11-22T01:38:22;2.53;;;1.60;;
55224;SDS011;41091;49.400;8.684;2023-11-22T01:40:48;2.78;;;2.03;;
55224;SDS011;41091;49.400;8.684;2023-11-22T01:43:17;2.22;;;2.03;;
55224;SDS011;41091;49.400;8.684;2023-11-22T01:45:45;2.10;;;1.98;;
55224;SDS011;41091;49.400;8.684;2023-11-22T01:48:13;1.80;;;1.70;;
55224;SDS011;41091;49.400;8.684;2023-11-22T01:50:39;2.15;;;2.05;;
55224;SDS011;41091;49.400;8.684;2023-11-22T01:53:08;1.98;;;1.88;;
55224;SDS011;41091;49.400;8.684;2023-11-22T01:55:36;1.92;;;1.83;;
55224;SDS011;41091;49.400;8.684;2023-11-22T01:58:02;1.67;;;1.58;;
55224;SDS011;41091;49.400;8.684;2023-11-22T02:00:29;4.07;;;2.45;;
55224;SDS011;41091;49.400;8.684;2023-11-22T02:02:57;1.45;;;1.35;;
55224;SDS011;41091;49.400;8.684;2023-11-22T02:05:25;1.65;;;1.55;;
55224;SDS011;41091;49.400;8.684;2023-11-22T02:07:50;2.13;;;1.65;;
55224;SDS011;41091;49.400;8.684;2023-11-22T02:10:19;1.15;;;1.15;;
55224;SDS011;41091;49.400;8.684;2023-11-22T02:12:46;1.70;;;1.60;;
55224;SDS011;41091;49.400;8.684;2023-11-22T02:15:13;1.80;;;1.70;;
55224;SDS011;41091;49.400;8.684;2023-11-22T02:17:38;1.50;;;1.40;;
55224;SDS011;41091;49.400;8.684;2023-11-22T02:20:07;1.60;;;1.50;;
55224;SDS011;41091;49.400;8.684;2023-11-22T02:22:44;1.70;;;1.40;;
55224;SDS011;41091;49.400;8.684;2023-11-22T02:25:10;1.65;;;1.55;;
55224;SDS011;41091;49.400;8.684;2023-11-22T02:27:36;5.28;;;1.60;;
55224;SDS011;41091;49.400;8.684;2023-11-22T02:30:05;1.77;;;1.70;;
55224;SDS011;41091;49.400;8.684;2023-11-22T02:32:33;1.92;;;1.83;;
55224;SDS011;41091;49.400;8.684;2023-11-22T02:35:01;1.58;;;1.48;;
55224;SDS011;41091;49.400;8.684;2023-11-22T02:37:31;1.75;;;1.65;;
55224;SDS011;41091;49.400;8.684;2023-11-22T02:42:23;2.22;;;2.13;;
55224;SDS011;41091;49.400;8.684;2023-11-22T02:44:49;2.00;;;1.85;;
55224;SDS011;41091;49.400;8.684;2023-11-22T02:47:14;1.80;;;1.70;;
55224;SDS011;41091;49.400;8.684;2023-11-22T02:49:39;1.80;;;1.70;;
55224;SDS011;41091;49.400;8.684;2023-11-22T02:52:05;2.50;;;1.90;;
55224;SDS011;41091;49.400;8.684;2023-11-22T02:54:33;2.63;;;1.67;;
55224;SDS011;41091;49.400;8.684;2023-11-22T02:56:59;2.00;;;1.60;;
55224;SDS011;41091;49.400;8.684;2023-11-22T02:59:28;2.40;;;1.83;;
55224;SDS011;41091;49.400;8.684;2023-11-22T03:01:53;2.10;;;2.00;;
55224;SDS011;41091;49.400;8.684;2023-11-22T03:04:21;1.73;;;1.63;;
55224;SDS011;41091;49.400;8.684;2023-11-22T03:06:48;1.33;;;1.33;;
55224;SDS011;41091;49.400;8.684;2023-11-22T03:09:13;2.38;;;1.55;;
55224;SDS011;41091;49.400;8.684;2023-11-22T03:11:39;2.38;;;2.05;;
55224;SDS011;41091;49.400;8.684;2023-11-22T03:14:05;3.92;;;1.80;;
55224;SDS011;41091;49.400;8.684;2023-11-22T03:16:30;4.30;;;2.08;;
55224;SDS011;41091;49.400;8.684;2023-11-22T03:18:55;1.60;;;1.50;;
55224;SDS011;41091;49.400;8.684;2023-11-22T03:21:23;1.90;;;1.80;;
55224;SDS011;41091;49.400;8.684;2023-11-22T03:23:51;1.60;;;1.50;;
55224;SDS011;41091;49.400;8.684;2023-11-22T03:26:16;1.55;;;1.55;;
55224;SDS011;41091;49.400;8.684;2023-11-22T03:28:41;1.88;;;1.63;;
55224;SDS011;41091;49.400;8.684;2023-11-22T03:31:07;1.73;;;1.58;;
55224;SDS011;41091;49.400;8.684;2023-11-22T03:33:33;1.67;;;1.58;;
55224;SDS011;41091;49.400;8.684;2023-11-22T03:36:03;7.03;;;2.05;;
55224;SDS011;41091;49.400;8.684;2023-11-22T03:38:30;1.52;;;1.42;;
55224;SDS011;41091;49.400;8.684;2023-11-22T03:40:55;1.85;;;1.75;;
55224;SDS011;41091;49.400;8.684;2023-11-22T03:43:20;5.60;;;1.98;;
55224;SDS011;41091;49.400;8.684;2023-11-22T03:45:46;1.67;;;1.48;;
55224;SDS011;41091;49.400;8.684;2023-11-22T03:48:13;1.63;;;1.52;;
55224;SDS011;41091;49.400;8.684;2023-11-22T03:50:39;1.58;;;1.20;;
55224;SDS011;41091;49.400;8.684;2023-11-22T03:53:06;9.77;;;1.98;;
55224;SDS011;41091;49.400;8.684;2023-11-22T03:55:32;2.15;;;1.98;;
55224;SDS011;41091;49.400;8.684;2023-11-22T03:57:59;1.70;;;1.60;;
55224;SDS011;41091;49.400;8.684;2023-11-22T04:00:25;2.40;;;2.20;;
55224;SDS011;41091;49.400;8.684;2023-11-22T04:02:53;1.80;;;1.70;;
55224;SDS011;41091;49.400;8.684;2023-11-22T04:05:19;1.58;;;1.48;;
55224;SDS011;41091;49.400;8.684;2023-11-22T04:07:46;1.73;;;1.40;;
55224;SDS011;41091;49.400;8.684;2023-11-22T04:10:11;1.75;;;1.65;;
55224;SDS011;41091;49.400;8.684;2023-11-22T04:12:37;1.60;;;1.50;;
55224;SDS011;41091;49.400;8.684;2023-11-22T04:15:03;1.73;;;1.63;;
55224;SDS011;41091;49.400;8.684;2023-11-22T04:17:29;1.88;;;1.77;;
55224;SDS011;41091;49.400;8.684;2023-11-22T04:19:54;1.98;;;1.88;;
55224;SDS011;41091;49.400;8.684;2023-11-22T04:22:19;1.98;;;1.83;;
55224;SDS011;41091;49.400;8.684;2023-11-22T04:24:48;4.75;;;1.80;;
55224;SDS011;41091;49.400;8.684;2023-11-22T04:27:13;1.70;;;1.60;;
55224;SDS011;41091;49.400;8.684;2023-11-22T04:29:41;2.00;;;1.58;;
55224;SDS011;41091;49.400;8.684;2023-11-22T04:32:07;1.48;;;1.40;;
55224;SDS011;41091;49.400;8.684;2023-11-22T04:34:33;1.65;;;1.55;;
55224;SDS011;41091;49.400;8.684;2023-11-22T04:37:02;4.10;;;1.92;;
55224;SDS011;41091;49.400;8.684;2023-11-22T04:39:27;1.80;;;1.70;;
55224;SDS011;41091;49.400;8.684;2023-11-22T04:41:53;4.15;;;1.98;;
55224;SDS011;41091;49.400;8.684;2023-11-22T04:44:18;3.85;;;1.83;;
55224;SDS011;41091;49.400;8.684;2023-11-22T04:46:43;1.75;;;1.52;;
55224;SDS011;41091;49.400;8.684;2023-11-22T04:49:09;2.10;;;2.00;;
55224;SDS011;41091;49.400;8.684;2023-11-22T04:51:34;2.92;;;1.90;;
55224;SDS011;41091;49.400;8.684;2023-11-22T04:53:59;2.17;;;1.70;;
55224;SDS011;41091;49.400;8.684;2023-11-22T04:56:24;1.70;;;1.60;;
55224;SDS011;41091;49.400;8.684;2023-11-22T04:58:52;4.03;;;1.73;;
55224;SDS011;41091;49.400;8.684;2023-11-22T05:01:18;2.47;;;1.60;;
55224;SDS011;41091;49.400;8.684;2023-11-22T05:03:44;11.45;;;1.80;;
55224;SDS011;41091;49.400;8.684;2023-11-22T05:06:09;3.38;;;1.83;;
55224;SDS011;41091;49.400;8.684;2023-11-22T05:08:34;4.93;;;1.67;;
55224;SDS011;41091;49.400;8.684;2023-11-22T05:11:00;1.80;;;1.70;;
55224;SDS011;41091;49.400;8.684;2023-11-22T05:13:28;1.70;;;1.48;;
55224;SDS011;41091;49.400;8.684;2023-11-22T05:15:55;4.00;;;1.88;;
55224;SDS011;41091;49.400;8.684;2023-11-22T05:18:20;1.60;;;1.50;;
55224;SDS011;41091;49.400;8.684;2023-11-22T05:20:46;3.83;;;3.25;;
55224;SDS011;41091;49.400;8.684;2023-11-22T05:23:14;3.60;;;1.42;;
55224;SDS011;41091;49.400;8.684;2023-11-22T05:25:39;1.88;;;1.75;;
55224;SDS011;41091;49.400;8.684;2023-11-22T05:28:05;1.70;;;1.60;;
55224;SDS011;41091;49.400;8.684;2023-11-22T05:30:30;1.40;;;1.38;;
55224;SDS011;41091;49.400;8.684;2023-11-22T05:32:57;3.47;;;1.55;;
55224;SDS011;41091;49.400;8.684;2023-11-22T05:35:23;3.92;;;1.48;;
55224;SDS011;41091;49.400;8.684;2023-11-22T05:37:48;1.40;;;1.38;;
55224;SDS011;41091;49.400;8.684;2023-11-22T05:40:16;1.73;;;1.63;;
55224;SDS011;41091;49.400;8.684;2023-11-22T05:42:41;1.33;;;1.23;;
55224;SDS011;41091;49.400;8.684;2023-11-22T05:45:09;1.35;;;1.30;;
55224;SDS011;41091;49.400;8.684;2023-11-22T05:47:35;2.30;;;1.33;;
55224;SDS011;41091;49.400;8.684;2023-11-22T05:50:00;1.55;;;1.45;;
55224;SDS011;41091;49.400;8.684;2023-11-22T05:52:26;1.50;;;1.40;;
55224;SDS011;41091;49.400;8.684;2023-11-22T05:54:51;1.75;;;1.65;;
55224;SDS011;41091;49.400;8.684;2023-11-22T05:57:16;2.08;;;1.98;;
55224;SDS011;41091;49.400;8.684;2023-11-22T05:59:45;1.52;;;1.00;;
55224;SDS011;41091;49.400;8.684;2023-11-22T06:02:12;2.65;;;1.70;;
55224;SDS011;41091;49.400;8.684;2023-11-22T06:04:40;2.88;;;1.17;;
55224;SDS011;41091;49.400;8.684;2023-11-22T06:07:08;1.48;;;1.38;;
55224;SDS011;41091;49.400;8.684;2023-11-22T06:09:33;3.28;;;1.13;;
55224;SDS011;41091;49.400;8.684;2023-11-22T06:12:01;1.40;;;1.30;;
55224;SDS011;41091;49.400;8.684;2023-11-22T06:14:26;1.58;;;1.45;;
55224;SDS011;41091;49.400;8.684;2023-11-22T06:16:52;1.35;;;1.35;;
55224;SDS011;41091;49.400;8.684;2023-11-22T06:19:17;1.30;;;1.25;;
55224;SDS011;41091;49.400;8.684;2023-11-22T06:21:45;3.42;;;1.45;;
55224;SDS011;41091;49.400;8.684;2023-11-22T06:24:11;1.13;;;1.10;;
55224;SDS011;41091;49.400;8.684;2023-11-22T06:26:40;2.05;;;1.55;;
55224;SDS011;41091;49.400;8.684;2023-11-22T06:31:36;2.30;;;1.73;;
55224;SDS011;41091;49.400;8.684;2023-11-22T06:34:05;1.73;;;1.52;;
55224;SDS011;41091;49.400;8.684;2023-11-22T06:36:30;1.58;;;1.48;;
55224;SDS011;41091;49.400;8.684;2023-11-22T06:38:56;1.77;;;1.67;;
55224;SDS011;41091;49.400;8.684;2023-11-22T06:41:21;2.08;;;1.90;;
55224;SDS011;41091;49.400;8.684;2023-11-22T06:43:47;2.47;;;1.92;;
55224;SDS011;41091;49.400;8.684;2023-11-22T06:46:15;3.03;;;1.90;;
55224;SDS011;41091;49.400;8.684;2023-11-22T06:48:43;2.63;;;2.13;;
55224;SDS011;41091;49.400;8.684;2023-11-22T06:51:13;3.42;;;2.10;;
55224;SDS011;41091;49.400;8.684;2023-11-22T06:53:39;1.95;;;1.80;;
55224;SDS011;41091;49.400;8.684;2023-11-22T06:56:04;3.33;;;1.70;;
55224;SDS011;41091;49.400;8.684;2023-11-22T06:58:32;2.50;;;2.30;;
55224;SDS011;41091;49.400;8.684;2023-11-22T07:01:00;2.13;;;1.80;;
55224;SDS011;41091;49.400;8.684;2023-11-22T07:03:28;3.38;;;1.95;;
55224;SDS011;41091;49.400;8.684;2023-11-22T07:05:53;3.55;;;2.10;;
55224;SDS011;41091;49.400;8.684;2023-11-22T07:08:19;2.05;;;1.95;;
55224;SDS011;41091;49.400;8.684;2023-11-22T07:10:45;2.35;;;1.90;;
55224;SDS011;41091;49.400;8.684;2023-11-22T07:13:11;4.40;;;1.90;;
55224;SDS011;41091;49.400;8.684;2023-11-22T07:15:37;2.40;;;2.20;;
55224;SDS011;41091;49.400;8.684;2023-11-22T07:18:05;2.50;;;2.25;;
55224;SDS011;41091;49.400;8.684;2023-11-22T07:20:34;2.03;;;1.67;;
55224;SDS011;41091;49.400;8.684;2023-11-22T07:23:00;2.78;;;2.17;;
55224;SDS011;41091;49.400;8.684;2023-11-22T07:25:25;3.03;;;1.77;;
55224;SDS011;41091;49.400;8.684;2023-11-22T07:27:54;2.53;;;2.35;;
55224;SDS011;41091;49.400;8.684;2023-11-22T07:30:24;5.05;;;1.90;;
55224;SDS011;41091;49.400;8.684;2023-11-22T07:32:55;2.10;;;1.83;;
55224;SDS011;41091;49.400;8.684;2023-11-22T07:35:20;2.67;;;2.15;;
55224;SDS011;41091;49.400;8.684;2023-11-22T07:37:48;6.60;;;2.42;;
55224;SDS011;41091;49.400;8.684;2023-11-22T07:40:16;2.00;;;1.90;;
55224;SDS011;41091;49.400;8.684;2023-11-22T07:42:44;3.78;;;1.50;;
55224;SDS011;41091;49.400;8.684;2023-11-22T07:45:12;2.63;;;2.38;;
55224;SDS011;41091;49.400;8.684;2023-11-22T07:47:38;2.50;;;2.30;;
55224;SDS011;41091;49.400;8.684;2023-11-22T07:50:09;2.42;;;2.22;;
55224;SDS011;41091;49.400;8.684;2023-11-22T07:52:38;3.50;;;2.60;;
55224;SDS011;41091;49.400;8.684;2023-11-22T07:55:07;1.77;;;1.70;;
55224;SDS011;41091;49.400;8.684;2023-11-22T07:57:33;2.65;;;2.10;;
55224;SDS011;41091;49.400;8.684;2023-11-22T07:59:59;2.55;;;1.70;;
55224;SDS011;41091;49.400;8.684;2023-11-22T08:02:26;2.08;;;1.83;;
55224;SDS011;41091;49.400;8.684;2023-11-22T08:04:51;1.88;;;1.77;;
55224;SDS011;41091;49.400;8.684;2023-11-22T08:07:17;1.83;;;1.73;;
55224;SDS011;41091;49.400;8.684;2023-11-22T08:09:43;1.88;;;1.77;;
55224;SDS011;41091;49.400;8.684;2023-11-22T08:12:08;1.73;;;1.63;;
55224;SDS011;41091;49.400;8.684;2023-11-22T08:14:38;2.63;;;1.70;;
55224;SDS011;41091;49.400;8.684;2023-11-22T08:17:04;2.00;;;1.90;;
55224;SDS011;41091;49.400;8.684;2023-11-22T08:19:30;2.40;;;1.70;;
55224;SDS011;41091;49.400;8.684;2023-11-22T08:22:00;2.20;;;2.00;;
55224;SDS011;41091;49.400;8.684;2023-11-22T08:24:26;3.50;;;1.77;;
55224;SDS011;41091;49.400;8.684;2023-11-22T08:26:54;2.58;;;1.65;;
55224;SDS011;41091;49.400;8.684;2023-11-22T08:29:19;2.53;;;2.33;;
55224;SDS011;41091;49.400;8.684;2023-11-22T08:31:44;2.08;;;1.95;;
55224;SDS011;41091;49.400;8.684;2023-11-22T08:34:12;2.15;;;1.90;;
55224;SDS011;41091;49.400;8.684;2023-11-22T08:36:40;5.43;;;1.95;;
55224;SDS011;41091;49.400;8.684;2023-11-22T08:39:07;2.28;;;2.10;;
55224;SDS011;41091;49.400;8.684;2023-11-22T08:41:33;3.55;;;2.05;;
55224;SDS011;41091;49.400;8.684;2023-11-22T08:43:58;3.47;;;1.88;;
55224;SDS011;41091;49.400;8.684;2023-11-22T08:46:24;2.33;;;2.10;;
55224;SDS011;41091;49.400;8.684;2023-11-22T08:48:50;2.38;;;2.20;;
55224;SDS011;41091;49.400;8.684;2023-11-22T08:51:16;1.73;;;1.63;;
55224;SDS011;41091;49.400;8.684;2023-11-22T08:53:41;2.83;;;2.40;;
55224;SDS011;41091;49.400;8.684;2023-11-22T08:56:11;2.13;;;1.95;;
55224;SDS011;41091;49.400;8.684;2023-11-22T08:58:40;2.20;;;2.08;;
55224;SDS011;41091;49.400;8.684;2023-11-22T09:01:08;4.47;;;2.67;;
55224;SDS011;41091;49.400;8.684;2023-11-22T09:03:39;2.63;;;2.42;;
55224;SDS011;41091;49.400;8.684;2023-11-22T09:06:08;3.40;;;1.90;;
55224;SDS011;41091;49.400;8.684;2023-11-22T09:08:34;8.35;;;2.03;;
55224;SDS011;41091;49.400;8.684;2023-11-22T09:11:02;2.08;;;1.95;;
55224;SDS011;41091;49.400;8.684;2023-11-22T09:13:31;2.20;;;2.05;;
55224;SDS011;41091;49.400;8.684;2023-11-22T09:15:56;2.38;;;2.10;;
55224;SDS011;41091;49.400;8.684;2023-11-22T09:18:22;2.50;;;1.90;;
55224;SDS011;41091;49.400;8.684;2023-11-22T09:20:47;2.22;;;2.13;;
55224;SDS011;41091;49.400;8.684;2023-11-22T09:23:15;2.35;;;2.17;;
55224;SDS011;41091;49.400;8.684;2023-11-22T09:25:43;2.08;;;1.90;;
55224;SDS011;41091;49.400;8.684;2023-11-22T09:28:08;1.67;;;1.58;;
55224;SDS011;41091;49.400;8.684;2023-11-22T09:30:34;1.80;;;1.70;;
55224;SDS011;41091;49.400;8.684;2023-11-22T09:33:10;4.53;;;1.67;;
55224;SDS011;41091;49.400;8.684;2023-11-22T09:35:37;2.28;;;2.08;;
55224;SDS011;41091;49.400;8.684;2023-11-22T09:38:07;1.70;;;1.60;;
55224;SDS011;41091;49.400;8.684;2023-11-22T09:40:46;2.08;;;1.98;;
55224;SDS011;41091;49.400;8.684;2023-11-22T09:43:12;4.97;;;2.35;;
55224;SDS011;41091;49.400;8.684;2023-11-22T09:45:48;1.55;;;1.45;;
55224;SDS011;41091;49.400;8.684;2023-11-22T09:48:18;2.40;;;2.05;;
55224;SDS011;41091;49.400;8.684;2023-11-22T09:50:49;2.17;;;1.90;;
55224;SDS011;41091;49.400;8.684;2023-11-22T09:53:22;2.47;;;2.28;;
55224;SDS011;41091;49.400;8.684;2023-11-22T09:55:56;1.95;;;1.85;;
55224;SDS011;41091;49.400;8.684;2023-11-22T09:58:22;2.25;;;2.05;;
55224;SDS011;41091;49.400;8.684;2023-11-22T10:00:51;2.05;;;1.95;;
55224;SDS011;41091;49.400;8.684;2023-11-22T10:03:20;1.98;;;1.88;;
55224;SDS011;41091;49.400;8.684;2023-11-22T10:05:48;2.35;;;1.63;;
55224;SDS011;41091;49.400;8.684;2023-11-22T10:08:14;2.38;;;2.00;;
55224;SDS011;41091;49.400;8.684;2023-11-22T10:10:46;1.80;;;1.70;;
55224;SDS011;41091;49.400;8.684;2023-11-22T10:13:16;1.77;;;1.67;;
55224;SDS011;41091;49.400;8.684;2023-11-22T10:15:45;4.32;;;1.98;;
55224;SDS011;41091;49.400;8.684;2023-11-22T10:18:16;1.90;;;1.75;;
55224;SDS011;41091;49.400;8.684;2023-11-22T10:20:44;3.00;;;1.60;;
55224;SDS011;41091;49.400;8.684;2023-11-22T10:23:14;1.58;;;1.48;;
55224;SDS011;41091;49.400;8.684;2023-11-22T10:25:48;1.60;;;1.55;;
55224;SDS011;41091;49.400;8.684;2023-11-22T10:28:17;2.00;;;1.55;;
55224;SDS011;41091;49.400;8.684;2023-11-22T10:30:49;1.90;;;1.80;;
55224;SDS011;41091;49.400;8.684;2023-11-22T10:33:16;2.65;;;2.20;;
55224;SDS011;41091;49.400;8.684;2023-11-22T10:35:49;2.05;;;1.80;;
55224;SDS011;41091;49.400;8.684;2023-11-22T10:38:18;1.83;;;1.70;;
55224;SDS011;41091;49.400;8.684;2023-11-22T10:40:44;1.80;;;1.60;;
55224;SDS011;41091;49.400;8.684;2023-11-22T10:43:16;1.90;;;1.80;;
55224;SDS011;41091;49.400;8.684;2023-11-22T10:45:44;2.00;;;1.90;;
55224;SDS011;41091;49.400;8.684;2023-11-22T10:48:14;2.03;;;1.85;;
55224;SDS011;41091;49.400;8.684;2023-11-22T10:50:46;1.33;;;1.23;;
55224;SDS011;41091;49.400;8.684;2023-11-22T10:53:12;1.55;;;1.45;;
55224;SDS011;41091;49.400;8.684;2023-11-22T10:55:46;1.50;;;1.10;;
55224;SDS011;41091;49.400;8.684;2023-11-22T10:58:13;1.33;;;1.30;;
55224;SDS011;41091;49.400;8.684;2023-11-22T11:00:40;3.83;;;1.67;;
55224;SDS011;41091;49.400;8.684;2023-11-22T11:03:11;1.30;;;1.20;;
55224;SDS011;41091;49.400;8.684;2023-11-22T11:08:11;5.60;;;2.03;;
55224;SDS011;41091;49.400;8.684;2023-11-22T11:10:42;1.67;;;1.58;;
55224;SDS011;41091;49.400;8.684;2023-11-22T11:13:08;1.55;;;1.50;;
55224;SDS011;41091;49.400;8.684;2023-11-22T11:15:35;1.85;;;1.75;;
55224;SDS011;41091;49.400;8.684;2023-11-22T11:18:06;2.78;;;1.77;;
55224;SDS011;41091;49.400;8.684;2023-11-22T11:20:33;1.75;;;1.65;;
55224;SDS011;41091;49.400;8.684;2023-11-22T11:23:20;1.25;;;1.10;;
55224;SDS011;41091;49.400;8.684;2023-11-22T11:25:54;1.75;;;1.65;;
55224;SDS011;41091;49.400;8.684;2023-11-22T11:28:42;2.03;;;1.92;;
55224;SDS011;41091;49.400;8.684;2023-11-22T11:31:09;1.50;;;1.40;;
55224;SDS011;41091;49.400;8.684;2023-11-22T11:33:34;1.40;;;1.30;;
55224;SDS011;41091;49.400;8.684;2023-11-22T11:36:03;6.25;;;1.77;;
55224;SDS011;41091;49.400;8.684;2023-11-22T11:38:32;7.10;;;1.63;;
55224;SDS011;41091;49.400;8.684;2023-11-22T11:41:09;3.10;;;1.58;;
55224;SDS011;41091;49.400;8.684;2023-11-22T11:43:38;1.63;;;1.52;;
55224;SDS011;41091;49.400;8.684;2023-11-22T11:46:14;2.05;;;1.90;;
55224;SDS011;41091;49.400;8.684;2023-11-22T11:48:44;2.05;;;1.85;;
55224;SDS011;41091;49.400;8.684;2023-11-22T11:51:12;16.40;;;3.50;;
55224;SDS011;41091;49.400;8.684;2023-11-22T11:53:39;10.00;;;2.80;;
55224;SDS011;41091;49.400;8.684;2023-11-22T11:56:07;6.88;;;3.72;;
55224;SDS011;41091;49.400;8.684;2023-11-22T11:58:33;2.85;;;2.65;;
55224;SDS011;41091;49.400;8.684;2023-11-22T12:00:59;2.60;;;2.40;;
55224;SDS011;41091;49.400;8.684;2023-11-22T12:03:24;2.40;;;2.20;;
55224;SDS011;41091;49.400;8.684;2023-11-22T12:05:49;2.80;;;1.73;;
55224;SDS011;41091;49.400;8.684;2023-11-22T12:08:15;2.35;;;2.13;;
55224;SDS011;41091;49.400;8.684;2023-11-22T12:10:42;4.35;;;3.00;;
55224;SDS011;41091;49.400;8.684;2023-11-22T12:13:20;9.27;;;2.15;;
55224;SDS011;41091;49.400;8.684;2023-11-22T12:15:49;6.15;;;2.53;;
55224;SDS011;41091;49.400;8.684;2023-11-22T12:18:15;2.25;;;2.03;;
55224;SDS011;41091;49.400;8.684;2023-11-22T12:20:41;2.65;;;1.67;;
55224;SDS011;41091;49.400;8.684;2023-11-22T12:23:07;1.83;;;1.73;;
55224;SDS011;41091;49.400;8.684;2023-11-22T12:25:39;3.55;;;2.28;;
55224;SDS011;41091;49.400;8.684;2023-11-22T12:28:04;1.98;;;1.80;;
55224;SDS011;41091;49.400;8.684;2023-11-22T12:30:33;2.67;;;2.47;;
55224;SDS011;41091;49.400;8.684;2023-11-22T12:33:01;2.38;;;2.17;;
55224;SDS011;41091;49.400;8.684;2023-11-22T12:35:27;2.25;;;2.13;;
55224;SDS011;41091;49.400;8.684;2023-11-22T12:37:53;2.05;;;1.90;;
55224;SDS011;41091;49.400;8.684;2023-11-22T12:40:22;2.45;;;2.35;;
55224;SDS011;41091;49.400;8.684;2023-11-22T12:42:56;2.70;;;2.60;;
55224;SDS011;41091;49.400;8.684;2023-11-22T12:45:24;2.90;;;2.28;;
55224;SDS011;41091;49.400;8.684;2023-11-22T12:47:51;2.08;;;1.92;;
55224;SDS011;41091;49.400;8.684;2023-11-22T12:50:36;2.05;;;1.95;;
55224;SDS011;41091;49.400;8.684;2023-11-22T12:53:13;2.38;;;2.13;;
55224;SDS011;41091;49.400;8.684;2023-11-22T12:55:42;2.60;;;2.40;;
55224;SDS011;41091;49.400;8.684;2023-11-22T12:58:13;2.35;;;2.13;;
55224;SDS011;41091;49.400;8.684;2023-11-22T13:00:39;5.03;;;1.85;;
55224;SDS011;41091;49.400;8.684;2023-11-22T13:03:05;3.30;;;2.20;;
55224;SDS011;41091;49.400;8.684;2023-11-22T13:05:37;1.65;;;1.55;;
55224;SDS011;41091;49.400;8.684;2023-11-22T13:08:03;1.75;;;1.65;;
55224;SDS011;41091;49.400;8.684;2023-11-22T13:10:31;1.70;;;1.65;;
55224;SDS011;41091;49.400;8.684;2023-11-22T13:12:59;1.73;;;1.63;;
55224;SDS011;41091;49.400;8.684;2023-11-22T13:15:27;1.65;;;1.55;;
55224;SDS011;41091;49.400;8.684;2023-11-22T13:17:55;2.17;;;1.83;;
55224;SDS011;41091;49.400;8.684;2023-11-22T13:20:24;2.58;;;1.95;;
55224;SDS011;41091;49.400;8.684;2023-11-22T13:22:51;1.80;;;1.70;;
55224;SDS011;41091;49.400;8.684;2023-11-22T13:25:17;1.55;;;1.45;;
55224;SDS011;41091;49.400;8.684;2023-11-22T13:27:50;2.45;;;2.35;;
55224;SDS011;41091;49.400;8.684;2023-11-22T13:30:18;2.72;;;2.47;;
55224;SDS011;41091;49.400;8.684;2023-11-22T13:32:47;2.67;;;2.08;;
55224;SDS011;41091;49.400;8.684;2023-11-22T13:35:19;2.10;;;1.90;;
55224;SDS011;41091;49.400;8.684;2023-11-22T13:37:45;1.80;;;1.70;;
55224;SDS011;41091;49.400;8.684;2023-11-22T13:40:11;2.95;;;1.80;;
55224;SDS011;41091;49.400;8.684;2023-11-22T13:42:40;6.28;;;1.92;;
55224;SDS011;41091;49.400;8.684;2023-11-22T13:45:12;1.90;;;1.80;;
55224;SDS011;41091;49.400;8.684;2023-11-22T13:47:47;4.10;;;2.03;;
55224;SDS011;41091;49.400;8.684;2023-11-22T13:50:16;2.75;;;2.03;;
55224;SDS011;41091;49.400;8.684;2023-11-22T13:52:50;2.10;;;1.92;;
55224;SDS011;41091;49.400;8.684;2023-11-22T13:55:18;1.70;;;1.60;;
55224;SDS011;41091;49.400;8.684;2023-11-22T13:57:48;1.97;;;1.77;;
55224;SDS011;41091;49.400;8.684;2023-11-22T14:00:17;2.03;;;1.88;;
55224;SDS011;41091;49.400;8.684;2023-11-22T14:02:51;2.13;;;1.98;;
55224;SDS011;41091;49.400;8.684;2023-11-22T14:05:20;1.80;;;1.70;;
55224;SDS011;41091;49.400;8.684;2023-11-22T14:07:49;2.80;;;1.85;;
55224;SDS011;41091;49.400;8.684;2023-11-22T14:10:16;6.65;;;3.25;;
55224;SDS011;41091;49.400;8.684;2023-11-22T14:12:44;8.63;;;6.05;;
55224;SDS011;41091;49.400;8.684;2023-11-22T14:15:11;11.07;;;6.30;;
55224;SDS011;41091;49.400;8.684;2023-11-22T14:17:36;2.38;;;2.28;;
55224;SDS011;41091;49.400;8.684;2023-11-22T14:20:09;4.63;;;2.95;;
55224;SDS011;41091;49.400;8.684;2023-11-22T14:22:36;2.72;;;2.38;;
55224;SDS011;41091;49.400;8.684;2023-11-22T14:25:04;2.25;;;2.05;;
55224;SDS011;41091;49.400;8.684;2023-11-22T14:27:32;3.50;;;2.30;;
55224;SDS011;41091;49.400;8.684;2023-11-22T14:29:58;1.88;;;1.75;;
55224;SDS011;41091;49.400;8.684;2023-11-22T14:32:24;2.42;;;2.22;;
55224;SDS011;41091;49.400;8.684;2023-11-22T14:34:49;5.00;;;2.47;;
55224;SDS011;41091;49.400;8.684;2023-11-22T14:37:14;2.47;;;1.85;;
55224;SDS011;41091;49.400;8.684;2023-11-22T14:39:45;3.35;;;2.65;;
55224;SDS011;41091;49.400;8.684;2023-11-22T14:42:10;2.38;;;2.17;;
55224;SDS011;41091;49.400;8.684;2023-11-22T14:44:40;4.20;;;3.28;;
55224;SDS011;41091;49.400;8.684;2023-11-22T14:47:08;4.38;;;2.17;;
55224;SDS011;41091;49.400;8.684;2023-11-22T14:49:50;2.70;;;2.50;;
55224;SDS011;41091;49.400;8.684;2023-11-22T14:52:16;2.75;;;2.10;;
55224;SDS011;41091;49.400;8.684;2023-11-22T14:54:45;2.30;;;2.10;;
55224;SDS011;41091;49.400;8.684;2023-11-22T14:57:11;2.92;;;2.20;;